Time;durP1;ratioP1;P1;durP2;ratioP2;P2;SDS_P1;SDS_P2;PMS_P1;PMS_P2;Temp;Humidity;BMP_temperature;BMP_pressure;BME280_temperature;BME280_humidity;BME280_pressure;Samples;Min_cycle;Max_cycle;Signal;HPM_P1;HPM_P2
2024/01/15 00:00:01;;;;;;;25.65;13.55;;;13.30;71.60;;;;;;349578;28;1477;-53
2024/01/15 00:00:12;;;;;;;23.38;13.40;;;13.30;71.60;;;;;;349690;28;1229;-52
2024/01/15 00:00:23;;;;;;;21.80;13.15;;;13.30;71.70;;;;;;349629;28;912;-52
2024/01/15 00:00:34;;;;;;;22.20;13.50;;;13.30;71.60;;;;;;349668;28;1043;-52
2024/01/15 00:00:44;;;;;;;24.65;13.57;;;13.30;71.60;;;;;;349607;28;1435;-55
2024/01/15 00:00:55;;;;;;;26.83;13.63;;;13.30;71.60;;;;;;349663;28;861;-51
2024/01/15 00:01:07;;;;;;;26.17;13.33;;;13.30;71.60;;;;;;349636;28;1274;-55
2024/01/15 00:01:17;;;;;;;25.95;13.52;;;13.30;71.60;;;;;;349591;28;1094;-53
2024/01/15 00:01:28;;;;;;;25.80;13.90;;;13.30;71.60;;;;;;349710;28;908;-53
2024/01/15 00:01:44;;;;;;;28.17;14.93;;;13.30;71.60;;;;;;349637;28;1262;-55
2024/01/15 00:01:54;;;;;;;27.25;15.35;;;13.30;71.70;;;;;;349698;28;987;-53
2024/01/15 00:02:06;;;;;;;25.83;14.68;;;13.30;71.60;;;;;;349643;28;934;-53
2024/01/15 00:02:17;;;;;;;25.23;13.98;;;13.30;71.60;;;;;;349678;28;1046;-53
2024/01/15 00:02:27;;;;;;;26.90;14.50;;;13.30;71.60;;;;;;349747;28;856;-52
2024/01/15 00:02:38;;;;;;;26.92;14.80;;;13.30;71.60;;;;;;349683;28;943;-53
2024/01/15 00:02:49;;;;;;;25.27;14.68;;;13.30;71.70;;;;;;349633;28;1086;-53
2024/01/15 00:03:00;;;;;;;27.80;14.43;;;13.30;71.70;;;;;;349621;28;841;-53
2024/01/15 00:03:10;;;;;;;25.67;14.30;;;13.30;71.70;;;;;;349665;28;943;-54
2024/01/15 00:03:21;;;;;;;25.17;14.45;;;13.30;71.70;;;;;;349678;28;1245;-53
2024/01/15 00:03:32;;;;;;;22.85;14.68;;;13.30;71.70;;;;;;349684;28;991;-53
2024/01/15 00:03:43;;;;;;;22.92;14.85;;;13.30;71.70;;;;;;349568;28;1349;-51
2024/01/15 00:03:54;;;;;;;23.65;14.18;;;13.30;71.80;;;;;;349584;28;1067;-53
2024/01/15 00:04:05;;;;;;;25.20;14.18;;;13.30;71.80;;;;;;349657;28;1042;-53
2024/01/15 00:04:15;;;;;;;25.35;14.13;;;13.30;71.80;;;;;;349654;28;1106;-53
2024/01/15 00:04:26;;;;;;;25.38;14.50;;;13.30;71.80;;;;;;349669;28;1507;-53
2024/01/15 00:04:40;;;;;;;26.20;14.70;;;13.30;71.80;;;;;;349683;28;1071;-52
2024/01/15 00:04:51;;;;;;;26.63;14.70;;;13.30;71.90;;;;;;349545;28;1087;-52
2024/01/15 00:05:02;;;;;;;24.93;14.50;;;13.30;71.90;;;;;;349713;28;812;-52
2024/01/15 00:05:13;;;;;;;23.15;14.13;;;13.30;71.90;;;;;;349640;28;1059;-52
2024/01/15 00:05:24;;;;;;;22.75;14.25;;;13.30;71.90;;;;;;349692;28;813;-52
2024/01/15 00:05:35;;;;;;;25.30;14.57;;;13.30;71.80;;;;;;349726;28;907;-51
2024/01/15 00:05:45;;;;;;;26.02;14.57;;;13.30;71.80;;;;;;349602;28;985;-52
2024/01/15 00:05:56;;;;;;;24.73;14.18;;;13.30;71.90;;;;;;349586;28;955;-53
2024/01/15 00:06:07;;;;;;;24.23;14.02;;;13.30;71.90;;;;;;349689;28;817;-52
2024/01/15 00:06:18;;;;;;;25.38;14.25;;;13.30;71.90;;;;;;349642;28;1062;-53
2024/01/15 00:06:28;;;;;;;24.40;14.27;;;13.30;71.90;;;;;;349576;28;1280;-53
2024/01/15 00:06:39;;;;;;;23.58;13.88;;;13.30;71.90;;;;;;349533;28;1348;-53
2024/01/15 00:06:50;;;;;;;22.70;13.75;;;13.30;71.90;;;;;;349658;28;1043;-53
2024/01/15 00:07:01;;;;;;;23.73;14.30;;;13.30;71.90;;;;;;349688;28;919;-53
2024/01/15 00:07:12;;;;;;;25.02;14.82;;;13.30;71.90;;;;;;349720;28;832;-53
2024/01/15 00:07:22;;;;;;;25.13;15.23;;;13.30;71.80;;;;;;349616;28;1083;-52
2024/01/15 00:07:33;;;;;;;25.25;15.18;;;13.30;71.90;;;;;;349606;28;1072;-52
2024/01/15 00:07:44;;;;;;;24.25;15.05;;;13.30;71.90;;;;;;349565;28;1501;-51
2024/01/15 00:07:55;;;;;;;24.20;14.90;;;13.30;71.90;;;;;;349722;28;955;-54
2024/01/15 00:08:06;;;;;;;24.65;15.32;;;13.30;71.90;;;;;;349669;28;1066;-53
2024/01/15 00:08:16;;;;;;;28.10;15.40;;;13.30;71.90;;;;;;349656;28;1003;-53
2024/01/15 00:08:27;;;;;;;28.33;14.87;;;13.30;71.80;;;;;;349609;28;1163;-51
2024/01/15 00:08:38;;;;;;;27.55;14.10;;;13.30;71.80;;;;;;349685;28;924;-52
2024/01/15 00:08:48;;;;;;;23.67;13.98;;;13.40;71.80;;;;;;349685;28;852;-53
2024/01/15 00:08:59;;;;;;;24.38;14.25;;;13.30;71.70;;;;;;349651;28;1983;-52
2024/01/15 00:09:10;;;;;;;24.23;14.17;;;13.30;71.70;;;;;;349636;28;1019;-53
2024/01/15 00:09:21;;;;;;;24.83;14.20;;;13.30;71.70;;;;;;349572;28;1066;-53
2024/01/15 00:09:31;;;;;;;25.58;13.98;;;13.30;71.60;;;;;;349697;28;928;-52
2024/01/15 00:09:42;;;;;;;25.55;14.18;;;13.30;71.60;;;;;;349688;28;899;-53
2024/01/15 00:09:53;;;;;;;24.08;14.27;;;13.30;71.60;;;;;;349643;28;1749;-53
2024/01/15 00:10:04;;;;;;;24.03;14.43;;;13.30;71.60;;;;;;349665;28;1031;-53
2024/01/15 00:10:15;;;;;;;22.05;13.98;;;13.30;71.70;;;;;;349551;28;1379;-53
2024/01/15 00:10:26;;;;;;;23.37;13.97;;;13.40;71.70;;;;;;349684;28;1559;-52
2024/01/15 00:10:37;;;;;;;23.17;13.70;;;13.30;71.70;;;;;;349698;28;812;-52
2024/01/15 00:10:48;;;;;;;22.92;13.46;;;13.30;71.70;;;;;;349631;28;872;-55
2024/01/15 00:10:58;;;;;;;21.23;13.33;;;13.30;71.70;;;;;;349711;28;1066;-52
2024/01/15 00:11:09;;;;;;;20.77;13.73;;;13.40;71.70;;;;;;349586;28;1428;-53
2024/01/15 00:11:20;;;;;;;22.90;14.20;;;13.40;71.70;;;;;;349689;28;1015;-53
2024/01/15 00:11:31;;;;;;;23.08;14.38;;;13.40;71.70;;;;;;349625;28;1011;-53
2024/01/15 00:11:42;;;;;;;22.45;14.23;;;13.30;71.70;;;;;;349621;28;959;-52
2024/01/15 00:11:53;;;;;;;22.52;14.32;;;13.40;71.70;;;;;;349631;28;888;-53
2024/01/15 00:12:04;;;;;;;23.92;14.43;;;13.30;71.80;;;;;;349593;28;1038;-52
2024/01/15 00:12:15;;;;;;;25.02;14.30;;;13.40;71.70;;;;;;349636;28;938;-52
2024/01/15 00:12:26;;;;;;;26.02;14.25;;;13.40;71.70;;;;;;349694;28;1074;-52
2024/01/15 00:12:36;;;;;;;25.40;14.20;;;13.40;71.70;;;;;;349663;28;1002;-53
2024/01/15 00:12:47;;;;;;;26.05;14.80;;;13.40;71.70;;;;;;349606;28;1278;-52
2024/01/15 00:12:58;;;;;;;23.10;14.23;;;13.40;71.70;;;;;;349525;28;1561;-53
2024/01/15 00:13:09;;;;;;;22.17;14.10;;;13.40;71.70;;;;;;349607;28;1216;-53
2024/01/15 00:13:19;;;;;;;19.83;13.45;;;13.30;71.70;;;;;;349645;28;987;-53
2024/01/15 00:13:30;;;;;;;20.45;13.50;;;13.40;71.70;;;;;;349704;28;808;-54
2024/01/15 00:13:41;;;;;;;21.67;13.23;;;13.40;71.70;;;;;;349658;28;1067;-52
2024/01/15 00:13:52;;;;;;;24.45;13.23;;;13.40;71.70;;;;;;349581;28;971;-52
2024/01/15 00:14:03;;;;;;;24.52;13.27;;;13.40;71.70;;;;;;349680;28;999;-52
2024/01/15 00:14:14;;;;;;;25.10;13.55;;;13.40;71.70;;;;;;349652;28;1026;-52
2024/01/15 00:14:25;;;;;;;22.83;13.07;;;13.40;71.70;;;;;;349707;28;1070;-52
2024/01/15 00:14:35;;;;;;;19.77;12.13;;;13.40;71.80;;;;;;349587;28;1099;-51
2024/01/15 00:14:46;;;;;;;18.75;12.00;;;13.40;71.70;;;;;;349631;28;1015;-54
2024/01/15 00:14:57;;;;;;;19.63;11.80;;;13.40;71.70;;;;;;349681;28;903;-52
2024/01/15 00:15:09;;;;;;;21.58;12.40;;;13.40;71.70;;;;;;349622;28;1977;-52
2024/01/15 00:15:20;;;;;;;21.08;12.05;;;13.40;71.80;;;;;;349569;28;1904;-51
2024/01/15 00:15:31;;;;;;;21.73;11.93;;;13.40;71.90;;;;;;349600;28;1659;-52
2024/01/15 00:15:42;;;;;;;21.60;11.55;;;13.40;71.90;;;;;;349702;28;984;-54
2024/01/15 00:15:53;;;;;;;22.92;11.55;;;13.40;72.00;;;;;;349645;28;1007;-53
2024/01/15 00:16:06;;;;;;;21.10;11.73;;;13.40;72.10;;;;;;349631;28;930;-52
2024/01/15 00:16:17;;;;;;;21.85;11.70;;;13.40;72.20;;;;;;349667;28;1106;-52
2024/01/15 00:16:28;;;;;;;23.25;11.70;;;13.40;72.20;;;;;;349676;28;1031;-53
2024/01/15 00:16:40;;;;;;;24.08;12.05;;;13.40;72.30;;;;;;349598;28;1169;-53
2024/01/15 00:16:51;;;;;;;20.55;12.10;;;13.40;72.20;;;;;;349506;28;1119;-53
2024/01/15 00:17:02;;;;;;;20.58;12.50;;;13.40;72.20;;;;;;349647;28;998;-52
2024/01/15 00:17:13;;;;;;;21.45;12.90;;;13.40;72.20;;;;;;349637;28;1057;-52
2024/01/15 00:17:24;;;;;;;22.58;13.07;;;13.40;72.20;;;;;;349670;28;1042;-52
2024/01/15 00:17:34;;;;;;;21.52;12.80;;;13.30;72.20;;;;;;349599;28;1157;-53
2024/01/15 00:17:45;;;;;;;21.35;12.48;;;13.40;72.20;;;;;;349621;28;1014;-53
2024/01/15 00:17:56;;;;;;;21.75;12.45;;;13.40;72.20;;;;;;349721;28;1055;-53
2024/01/15 00:18:07;;;;;;;21.95;12.85;;;13.40;72.20;;;;;;349685;28;1528;-53
2024/01/15 00:18:18;;;;;;;20.93;13.33;;;13.40;72.20;;;;;;349549;28;1273;-54
2024/01/15 00:18:28;;;;;;;21.20;13.70;;;13.30;72.20;;;;;;349690;28;837;-53
2024/01/15 00:18:39;;;;;;;22.15;14.00;;;13.30;72.20;;;;;;349613;28;1016;-52
2024/01/15 00:18:50;;;;;;;26.85;13.98;;;13.40;72.20;;;;;;349684;28;1081;-53
2024/01/15 00:19:01;;;;;;;26.73;14.00;;;13.40;72.20;;;;;;349619;28;1027;-53
2024/01/15 00:19:12;;;;;;;24.83;13.87;;;13.40;72.20;;;;;;349607;28;1015;-53
2024/01/15 00:19:23;;;;;;;21.90;14.02;;;13.40;72.20;;;;;;349657;28;1055;-51
2024/01/15 00:19:34;;;;;;;22.45;13.38;;;13.40;72.20;;;;;;349678;28;884;-52
2024/01/15 00:19:45;;;;;;;21.42;12.60;;;13.40;72.30;;;;;;349545;28;1924;-52
2024/01/15 00:19:56;;;;;;;19.52;11.93;;;13.40;72.30;;;;;;349674;28;829;-52
2024/01/15 00:20:07;;;;;;;20.20;12.43;;;13.40;72.30;;;;;;349635;28;1006;-52
2024/01/15 00:20:18;;;;;;;21.52;12.98;;;13.40;72.30;;;;;;349662;28;916;-53
2024/01/15 00:20:28;;;;;;;24.52;13.15;;;13.40;72.40;;;;;;349588;28;1154;-52
2024/01/15 00:20:39;;;;;;;24.10;12.77;;;13.40;72.40;;;;;;349626;28;1067;-55
2024/01/15 00:20:50;;;;;;;23.88;12.73;;;13.30;72.40;;;;;;349621;28;1051;-53
2024/01/15 00:21:01;;;;;;;22.30;13.07;;;13.40;72.50;;;;;;349607;28;1274;-54
2024/01/15 00:21:11;;;;;;;23.38;13.93;;;13.40;72.50;;;;;;349564;28;1111;-52
2024/01/15 00:21:23;;;;;;;22.02;14.55;;;13.40;72.50;;;;;;349642;28;1086;-53
2024/01/15 00:21:33;;;;;;;22.55;15.98;;;13.40;72.50;;;;;;349668;28;1074;-53
2024/01/15 00:21:45;;;;;;;22.50;17.02;;;13.40;72.50;;;;;;349654;28;1086;-53
2024/01/15 00:21:55;;;;;;;26.25;17.88;;;13.40;72.50;;;;;;349523;28;1024;-52
2024/01/15 00:22:06;;;;;;;25.35;17.15;;;13.40;72.50;;;;;;349688;28;873;-52
2024/01/15 00:22:17;;;;;;;25.83;16.67;;;13.40;72.50;;;;;;349588;28;1433;-52
2024/01/15 00:22:28;;;;;;;23.77;15.93;;;13.40;72.50;;;;;;349641;28;971;-53
2024/01/15 00:22:39;;;;;;;26.17;16.08;;;13.40;72.50;;;;;;349569;28;1010;-52
2024/01/15 00:22:50;;;;;;;24.65;15.75;;;13.40;72.50;;;;;;349634;28;1102;-52
2024/01/15 00:23:00;;;;;;;25.48;15.65;;;13.40;72.50;;;;;;349673;28;1031;-52
2024/01/15 00:23:11;;;;;;;23.48;15.20;;;13.40;72.50;;;;;;349642;28;940;-52
2024/01/15 00:23:22;;;;;;;23.70;15.18;;;13.40;72.50;;;;;;349592;28;1310;-53
2024/01/15 00:23:33;;;;;;;23.60;15.00;;;13.40;72.50;;;;;;349653;28;1007;-52
2024/01/15 00:23:45;;;;;;;26.08;14.88;;;13.40;72.50;;;;;;349578;28;1103;-52
2024/01/15 00:23:55;;;;;;;26.80;14.27;;;13.40;72.50;;;;;;349682;28;1023;-52
2024/01/15 00:24:06;;;;;;;24.63;13.60;;;13.40;72.50;;;;;;349566;28;1161;-52
2024/01/15 00:24:17;;;;;;;21.25;12.95;;;13.40;72.50;;;;;;349659;28;1074;-52
2024/01/15 00:24:28;;;;;;;22.85;13.23;;;13.40;72.50;;;;;;349671;28;872;-53
2024/01/15 00:24:38;;;;;;;22.27;13.13;;;13.40;72.50;;;;;;349650;28;1081;-53
2024/01/15 00:24:49;;;;;;;22.13;13.07;;;13.50;72.60;;;;;;349614;28;917;-52
2024/01/15 00:25:00;;;;;;;20.02;12.90;;;13.50;72.60;;;;;;349649;28;1567;-53
2024/01/15 00:25:11;;;;;;;21.38;12.60;;;13.40;72.60;;;;;;349691;28;1050;-53
2024/01/15 00:25:22;;;;;;;22.10;12.73;;;13.50;72.70;;;;;;349690;28;825;-51
2024/01/15 00:25:32;;;;;;;22.63;12.82;;;13.50;72.70;;;;;;349532;28;1158;-54
2024/01/15 00:25:43;;;;;;;21.97;12.83;;;13.40;72.80;;;;;;349678;28;1031;-52
2024/01/15 00:25:54;;;;;;;20.40;12.77;;;13.50;72.80;;;;;;349622;28;1024;-52
2024/01/15 00:26:04;;;;;;;21.25;12.93;;;13.40;72.80;;;;;;349700;28;1077;-53
2024/01/15 00:26:15;;;;;;;20.33;13.10;;;13.50;72.80;;;;;;349616;28;1022;-52
2024/01/15 00:26:26;;;;;;;22.20;14.00;;;13.40;72.80;;;;;;349653;28;1130;-52
2024/01/15 00:26:37;;;;;;;25.80;16.47;;;13.50;72.80;;;;;;349595;28;1055;-52
2024/01/15 00:26:47;;;;;;;28.95;17.45;;;13.50;72.70;;;;;;349586;28;1637;-51
2024/01/15 00:26:58;;;;;;;28.05;17.08;;;13.40;72.70;;;;;;349601;28;962;-53
2024/01/15 00:27:09;;;;;;;26.23;15.70;;;13.50;72.70;;;;;;349677;28;801;-52
2024/01/15 00:27:20;;;;;;;24.17;15.57;;;13.50;72.70;;;;;;349546;28;1453;-52
2024/01/15 00:27:31;;;;;;;24.13;15.77;;;13.50;72.70;;;;;;349684;28;1018;-52
2024/01/15 00:27:41;;;;;;;24.33;16.08;;;13.50;72.70;;;;;;349582;28;1039;-53
2024/01/15 00:27:52;;;;;;;24.15;16.65;;;13.50;72.70;;;;;;349607;28;1030;-53
2024/01/15 00:28:03;;;;;;;24.90;17.10;;;13.50;72.70;;;;;;349677;28;995;-53
2024/01/15 00:28:14;;;;;;;24.58;17.55;;;13.50;72.70;;;;;;349649;28;1188;-53
2024/01/15 00:28:24;;;;;;;25.75;17.38;;;13.50;72.70;;;;;;349552;28;1117;-52
2024/01/15 00:28:36;;;;;;;25.60;17.63;;;13.50;72.70;;;;;;349710;28;991;-52
2024/01/15 00:28:47;;;;;;;26.63;17.38;;;13.40;72.70;;;;;;349609;28;1816;-52
2024/01/15 00:28:58;;;;;;;24.65;17.30;;;13.50;72.70;;;;;;349594;28;1078;-53
2024/01/15 00:29:09;;;;;;;24.98;17.38;;;13.50;72.70;;;;;;349652;28;824;-53
2024/01/15 00:29:20;;;;;;;26.48;17.52;;;13.50;72.70;;;;;;349625;28;1023;-52
2024/01/15 00:29:30;;;;;;;27.65;18.60;;;13.50;72.80;;;;;;349589;28;990;-53
2024/01/15 00:29:41;;;;;;;29.42;20.27;;;13.50;72.80;;;;;;349631;28;1069;-53
2024/01/15 00:29:52;;;;;;;31.37;21.20;;;13.50;72.80;;;;;;349591;28;1333;-53
2024/01/15 00:30:04;;;;;;;32.17;20.85;;;13.40;72.80;;;;;;349579;28;1058;-52
2024/01/15 00:30:15;;;;;;;30.52;19.63;;;13.40;72.90;;;;;;349660;28;927;-53
2024/01/15 00:30:26;;;;;;;28.77;18.60;;;13.50;72.90;;;;;;349666;28;1038;-51
2024/01/15 00:30:37;;;;;;;27.83;17.65;;;13.50;72.90;;;;;;349547;28;983;-53
2024/01/15 00:30:48;;;;;;;26.93;17.27;;;13.50;72.90;;;;;;349577;28;853;-53
2024/01/15 00:30:58;;;;;;;26.52;16.80;;;13.50;73.00;;;;;;349652;28;891;-53
2024/01/15 00:31:09;;;;;;;26.17;16.52;;;13.50;73.00;;;;;;349532;28;1514;-52
2024/01/15 00:31:20;;;;;;;26.85;15.95;;;13.50;73.00;;;;;;349593;28;1115;-51
2024/01/15 00:31:31;;;;;;;26.03;15.90;;;13.50;73.00;;;;;;349673;28;1047;-53
2024/01/15 00:31:41;;;;;;;28.05;16.48;;;13.50;73.00;;;;;;349458;28;1237;-51
2024/01/15 00:31:52;;;;;;;29.92;17.30;;;13.50;73.00;;;;;;349639;28;1815;-52
2024/01/15 00:32:03;;;;;;;29.25;17.27;;;13.50;73.00;;;;;;349646;28;979;-51
2024/01/15 00:32:14;;;;;;;28.67;17.90;;;13.50;73.00;;;;;;349503;28;1114;-51
2024/01/15 00:32:25;;;;;;;24.55;17.13;;;13.50;73.00;;;;;;349673;28;841;-52
2024/01/15 00:32:36;;;;;;;26.08;17.73;;;13.50;72.90;;;;;;349653;28;999;-51
2024/01/15 00:32:46;;;;;;;26.63;18.27;;;13.50;72.90;;;;;;349468;28;1099;-53
2024/01/15 00:32:57;;;;;;;28.87;19.67;;;13.50;72.90;;;;;;349656;28;967;-51
2024/01/15 00:33:08;;;;;;;28.23;20.10;;;13.40;72.90;;;;;;349626;28;1056;-51
2024/01/15 00:33:19;;;;;;;26.98;20.23;;;13.50;72.90;;;;;;349629;28;1015;-52
2024/01/15 00:33:29;;;;;;;28.02;19.80;;;13.40;72.80;;;;;;349639;28;901;-52
2024/01/15 00:33:40;;;;;;;27.13;18.87;;;13.50;72.80;;;;;;349581;28;1375;-52
2024/01/15 00:33:51;;;;;;;26.50;17.45;;;13.40;72.70;;;;;;349636;28;1050;-52
2024/01/15 00:34:02;;;;;;;24.23;16.60;;;13.40;72.70;;;;;;349638;28;1984;-52
2024/01/15 00:34:12;;;;;;;24.33;16.23;;;13.50;72.60;;;;;;349533;28;1047;-52
2024/01/15 00:34:23;;;;;;;24.33;15.88;;;13.40;72.50;;;;;;349688;28;967;-52
2024/01/15 00:34:34;;;;;;;24.77;16.17;;;13.40;72.40;;;;;;349664;28;1077;-52
2024/01/15 00:34:45;;;;;;;24.75;15.88;;;13.50;72.40;;;;;;349616;28;1853;-53
2024/01/15 00:34:56;;;;;;;23.55;15.68;;;13.40;72.40;;;;;;349586;28;965;-53
2024/01/15 00:35:06;;;;;;;23.65;15.73;;;13.40;72.40;;;;;;349596;28;1922;-52
2024/01/15 00:35:17;;;;;;;24.75;15.68;;;13.40;72.40;;;;;;349629;28;1226;-52
2024/01/15 00:35:28;;;;;;;27.05;15.95;;;13.40;72.40;;;;;;349609;28;1162;-53
2024/01/15 00:35:39;;;;;;;27.20;15.98;;;13.40;72.40;;;;;;349595;28;946;-52
2024/01/15 00:35:50;;;;;;;25.87;16.10;;;13.40;72.40;;;;;;349594;28;1007;-52
2024/01/15 00:36:00;;;;;;;23.95;16.05;;;13.40;72.40;;;;;;349611;28;1083;-52
2024/01/15 00:36:11;;;;;;;24.23;15.75;;;13.50;72.40;;;;;;349662;28;1011;-51
2024/01/15 00:36:22;;;;;;;25.20;16.00;;;13.40;72.40;;;;;;349554;28;1807;-52
2024/01/15 00:36:32;;;;;;;25.58;15.93;;;13.40;72.40;;;;;;349596;28;1483;-52
2024/01/15 00:36:43;;;;;;;26.07;15.50;;;13.50;72.30;;;;;;349580;28;876;-51
2024/01/15 00:36:54;;;;;;;23.67;14.82;;;13.40;72.30;;;;;;349612;28;872;-53
2024/01/15 00:37:06;;;;;;;23.33;14.90;;;13.40;72.30;;;;;;349601;28;1059;-53
2024/01/15 00:37:17;;;;;;;22.33;15.15;;;13.40;72.30;;;;;;349603;28;852;-53
2024/01/15 00:37:28;;;;;;;23.85;15.57;;;13.40;72.30;;;;;;349644;28;1027;-51
2024/01/15 00:37:39;;;;;;;26.00;15.88;;;13.40;72.20;;;;;;349607;28;1549;-52
2024/01/15 00:37:50;;;;;;;27.98;15.75;;;13.40;72.20;;;;;;349520;28;1078;-53
2024/01/15 00:38:01;;;;;;;26.30;15.20;;;13.40;72.20;;;;;;349668;28;863;-52
2024/01/15 00:38:12;;;;;;;26.20;14.55;;;13.40;72.20;;;;;;349730;28;825;-53
2024/01/15 00:38:22;;;;;;;23.27;14.15;;;13.40;72.20;;;;;;349617;28;1098;-53
2024/01/15 00:38:33;;;;;;;21.92;14.00;;;13.40;72.10;;;;;;349712;28;983;-53
2024/01/15 00:38:44;;;;;;;20.10;14.13;;;13.40;72.10;;;;;;349594;28;940;-52
2024/01/15 00:38:55;;;;;;;21.08;13.80;;;13.40;72.20;;;;;;349667;28;1008;-52
2024/01/15 00:39:06;;;;;;;22.67;13.90;;;13.40;72.10;;;;;;349615;28;829;-52
2024/01/15 00:39:16;;;;;;;24.63;14.27;;;13.40;72.20;;;;;;349654;28;1169;-53
2024/01/15 00:39:27;;;;;;;24.90;14.85;;;13.40;72.20;;;;;;349586;28;2329;-52
2024/01/15 00:39:38;;;;;;;22.83;14.50;;;13.40;72.20;;;;;;349511;28;1926;-53
2024/01/15 00:39:49;;;;;;;20.98;14.02;;;13.40;72.20;;;;;;349652;28;916;-53
2024/01/15 00:40:00;;;;;;;21.03;13.70;;;13.40;72.20;;;;;;349710;28;782;-52
2024/01/15 00:40:10;;;;;;;24.25;14.07;;;13.40;72.20;;;;;;349631;28;1078;-52
2024/01/15 00:40:21;;;;;;;25.35;14.60;;;13.40;72.20;;;;;;349725;28;774;-53
2024/01/15 00:40:32;;;;;;;24.73;14.98;;;13.40;72.20;;;;;;349531;28;995;-52
2024/01/15 00:40:43;;;;;;;22.60;15.00;;;13.40;72.20;;;;;;349635;28;829;-53
2024/01/15 00:40:54;;;;;;;22.87;14.63;;;13.40;72.20;;;;;;349580;28;1062;-52
2024/01/15 00:41:05;;;;;;;22.67;14.25;;;13.40;72.20;;;;;;349612;28;1007;-53
2024/01/15 00:41:16;;;;;;;23.30;14.40;;;13.40;72.20;;;;;;349675;28;961;-52
2024/01/15 00:41:27;;;;;;;21.35;13.95;;;13.40;72.20;;;;;;349628;28;1011;-52
2024/01/15 00:41:38;;;;;;;20.67;13.75;;;13.40;72.20;;;;;;349600;28;987;-52
2024/01/15 00:41:49;;;;;;;18.75;13.45;;;13.40;72.20;;;;;;349648;28;975;-53
2024/01/15 00:42:00;;;;;;;19.48;13.43;;;13.40;72.20;;;;;;349613;28;980;-53
2024/01/15 00:42:10;;;;;;;20.38;13.23;;;13.40;72.30;;;;;;349658;28;821;-53
2024/01/15 00:42:21;;;;;;;23.13;13.63;;;13.40;72.20;;;;;;349536;28;1018;-52
2024/01/15 00:42:32;;;;;;;23.90;14.05;;;13.40;72.30;;;;;;349501;28;1271;-54
2024/01/15 00:42:43;;;;;;;24.92;14.18;;;13.40;72.30;;;;;;349570;28;1423;-52
2024/01/15 00:42:53;;;;;;;23.67;14.10;;;13.40;72.30;;;;;;349535;28;1391;-51
2024/01/15 00:43:04;;;;;;;23.58;13.63;;;13.40;72.30;;;;;;349664;28;1042;-53
2024/01/15 00:43:18;;;;;;;23.58;14.18;;;13.40;72.30;;;;;;349514;28;1015;-52
2024/01/15 00:43:28;;;;;;;22.85;14.27;;;13.40;72.30;;;;;;349543;28;2208;-52
2024/01/15 00:43:39;;;;;;;22.10;14.43;;;13.40;72.30;;;;;;349616;28;1188;-54
2024/01/15 00:43:50;;;;;;;21.40;14.52;;;13.40;72.30;;;;;;349619;28;1015;-52
2024/01/15 00:44:01;;;;;;;24.23;14.67;;;13.40;72.30;;;;;;349689;28;884;-52
2024/01/15 00:44:11;;;;;;;26.35;14.55;;;13.40;72.30;;;;;;349553;28;980;-52
2024/01/15 00:44:22;;;;;;;27.17;14.02;;;13.40;72.30;;;;;;349654;28;1794;-52
2024/01/15 00:44:33;;;;;;;24.58;13.90;;;13.40;72.30;;;;;;349661;28;1043;-51
2024/01/15 00:44:44;;;;;;;25.27;14.50;;;13.40;72.30;;;;;;349610;28;1011;-53
2024/01/15 00:44:54;;;;;;;23.27;14.50;;;13.40;72.30;;;;;;349637;28;975;-52
2024/01/15 00:45:07;;;;;;;23.77;14.48;;;13.40;72.30;;;;;;349603;28;1054;-53
2024/01/15 00:45:18;;;;;;;23.55;14.07;;;13.40;72.30;;;;;;349589;28;1282;-52
2024/01/15 00:45:29;;;;;;;23.35;14.30;;;13.40;72.30;;;;;;349580;28;1282;-52
2024/01/15 00:45:40;;;;;;;22.38;14.45;;;13.40;72.40;;;;;;349641;28;911;-51
2024/01/15 00:45:50;;;;;;;21.90;14.13;;;13.40;72.40;;;;;;349616;28;908;-54
2024/01/15 00:46:05;;;;;;;22.77;14.20;;;13.40;72.40;;;;;;349577;28;1026;-53
2024/01/15 00:46:15;;;;;;;23.10;14.70;;;13.40;72.50;;;;;;349600;28;942;-53
2024/01/15 00:46:26;;;;;;;22.50;14.70;;;13.40;72.50;;;;;;349651;28;1003;-52
2024/01/15 00:46:45;;;;;;;20.97;14.53;;;13.40;72.40;;;;;;349580;28;1248;-52
2024/01/15 00:46:56;;;;;;;23.15;15.10;;;13.40;72.40;;;;;;349515;28;1082;-52
2024/01/15 00:47:07;;;;;;;23.23;14.63;;;13.40;72.40;;;;;;349552;28;1159;-52
2024/01/15 00:47:20;;;;;;;24.15;14.32;;;13.40;72.40;;;;;;349634;28;987;-51
2024/01/15 00:47:31;;;;;;;22.13;13.95;;;13.30;72.30;;;;;;349631;28;1149;-52
2024/01/15 00:47:42;;;;;;;22.03;13.90;;;13.40;72.30;;;;;;349522;28;1400;-52
2024/01/15 00:47:53;;;;;;;22.55;13.95;;;13.40;72.20;;;;;;349587;28;868;-52
2024/01/15 00:48:04;;;;;;;22.70;14.02;;;13.40;72.20;;;;;;349616;28;924;-52
2024/01/15 00:48:15;;;;;;;22.95;13.55;;;13.40;72.20;;;;;;349624;28;1596;-52
2024/01/15 00:48:26;;;;;;;25.13;13.77;;;13.40;72.20;;;;;;349630;28;2044;-52
2024/01/15 00:48:37;;;;;;;26.80;14.17;;;13.40;72.10;;;;;;349518;28;1094;-52
2024/01/15 00:48:47;;;;;;;26.30;14.40;;;13.40;72.10;;;;;;349528;28;1039;-53
2024/01/15 00:48:58;;;;;;;23.70;14.10;;;13.40;72.10;;;;;;349590;28;1935;-51
2024/01/15 00:49:09;;;;;;;23.77;14.13;;;13.30;72.20;;;;;;349535;28;1047;-53
2024/01/15 00:49:20;;;;;;;23.70;14.40;;;13.40;72.20;;;;;;349516;28;1011;-53
2024/01/15 00:49:31;;;;;;;23.58;14.55;;;13.40;72.20;;;;;;349620;28;1022;-53
2024/01/15 00:49:42;;;;;;;22.55;14.02;;;13.40;72.20;;;;;;349650;28;883;-53
2024/01/15 00:49:52;;;;;;;20.83;13.70;;;13.30;72.20;;;;;;349663;28;999;-52
2024/01/15 00:50:03;;;;;;;19.00;13.53;;;13.40;72.30;;;;;;349558;28;1992;-52
2024/01/15 00:50:14;;;;;;;19.83;13.43;;;13.40;72.30;;;;;;349643;28;1062;-52
2024/01/15 00:50:25;;;;;;;20.08;13.52;;;13.40;72.30;;;;;;349596;28;1967;-53
2024/01/15 00:50:36;;;;;;;20.38;13.38;;;13.40;72.20;;;;;;349662;28;900;-52
2024/01/15 00:50:47;;;;;;;20.08;13.45;;;13.40;72.20;;;;;;349490;28;1344;-52
2024/01/15 00:50:57;;;;;;;21.70;13.98;;;13.30;72.30;;;;;;349629;28;968;-53
2024/01/15 00:51:08;;;;;;;22.15;14.30;;;13.40;72.30;;;;;;349630;28;967;-53
2024/01/15 00:51:19;;;;;;;21.00;14.27;;;13.40;72.30;;;;;;349610;28;853;-52
2024/01/15 00:51:30;;;;;;;23.20;14.32;;;13.40;72.30;;;;;;349597;28;874;-52
2024/01/15 00:51:41;;;;;;;25.38;14.23;;;13.40;72.30;;;;;;349628;28;1094;-52
2024/01/15 00:51:51;;;;;;;25.23;14.43;;;13.40;72.30;;;;;;349549;28;1409;-54
2024/01/15 00:52:02;;;;;;;24.50;14.45;;;13.40;72.30;;;;;;349672;28;1069;-53
2024/01/15 00:52:13;;;;;;;22.95;14.52;;;13.40;72.20;;;;;;349561;28;1081;-52
2024/01/15 00:52:24;;;;;;;21.93;14.17;;;13.40;72.20;;;;;;349660;28;978;-52
2024/01/15 00:52:35;;;;;;;22.80;14.03;;;13.40;72.20;;;;;;349635;28;1070;-52
2024/01/15 00:52:45;;;;;;;22.83;14.00;;;13.30;72.20;;;;;;349596;28;1169;-53
2024/01/15 00:52:56;;;;;;;24.20;14.10;;;13.40;72.20;;;;;;349566;28;1028;-53
2024/01/15 00:53:07;;;;;;;23.65;14.10;;;13.40;72.20;;;;;;349648;28;943;-53
2024/01/15 00:53:18;;;;;;;24.33;14.35;;;13.40;72.10;;;;;;349670;28;797;-51
2024/01/15 00:53:28;;;;;;;23.80;14.37;;;13.40;72.10;;;;;;349600;28;1101;-53
2024/01/15 00:53:39;;;;;;;23.33;14.43;;;13.40;72.10;;;;;;349562;28;1024;-52
2024/01/15 00:53:50;;;;;;;24.80;14.35;;;13.30;72.10;;;;;;349515;28;1019;-52
2024/01/15 00:54:01;;;;;;;25.40;14.70;;;13.40;72.10;;;;;;349607;28;1045;-52
2024/01/15 00:54:12;;;;;;;27.42;15.05;;;13.30;72.10;;;;;;349626;28;1161;-53
2024/01/15 00:54:23;;;;;;;23.52;14.82;;;13.40;72.10;;;;;;349650;28;1023;-51
2024/01/15 00:54:33;;;;;;;21.77;14.90;;;13.40;72.10;;;;;;349670;28;1059;-52
2024/01/15 00:54:44;;;;;;;21.98;15.07;;;13.40;72.10;;;;;;349555;28;1053;-52
2024/01/15 00:54:55;;;;;;;23.17;14.80;;;13.30;72.00;;;;;;349612;28;1186;-55
2024/01/15 00:55:06;;;;;;;24.52;15.10;;;13.30;72.10;;;;;;349566;28;1972;-52
2024/01/15 00:55:17;;;;;;;24.67;15.35;;;13.40;72.10;;;;;;349604;28;1516;-53
2024/01/15 00:55:29;;;;;;;24.75;15.43;;;13.40;72.10;;;;;;349606;28;1567;-52
2024/01/15 00:55:40;;;;;;;26.20;15.48;;;13.30;72.10;;;;;;349583;28;902;-52
2024/01/15 00:55:50;;;;;;;27.65;15.32;;;13.40;72.00;;;;;;349579;28;1148;-53
2024/01/15 00:56:03;;;;;;;27.42;14.85;;;13.40;72.00;;;;;;349702;28;824;-53
2024/01/15 00:56:13;;;;;;;26.42;15.15;;;13.30;72.10;;;;;;349611;28;1708;-52
2024/01/15 00:56:24;;;;;;;24.60;15.40;;;13.40;72.00;;;;;;349552;28;1058;-53
2024/01/15 00:56:35;;;;;;;25.10;15.52;;;13.40;72.10;;;;;;349658;28;825;-52
2024/01/15 00:56:46;;;;;;;24.43;15.77;;;13.40;72.10;;;;;;349635;28;1053;-54
2024/01/15 00:56:56;;;;;;;26.08;15.68;;;13.40;72.00;;;;;;349659;28;829;-52
2024/01/15 00:57:07;;;;;;;26.05;15.35;;;13.40;72.00;;;;;;349605;28;1137;-53